createdAt,value
2023-04-03T00:01:19.494Z,7.17
2023-04-03T00:03:48.099Z,8.87
2023-04-03T00:06:16.718Z,7.97
2023-04-03T00:08:45.057Z,7.70
2023-04-03T00:11:15.107Z,7.13
2023-04-03T00:13:44.080Z,7.70
2023-04-03T00:16:13.001Z,7.67
2023-04-03T00:18:42.124Z,7.00
2023-04-03T00:21:11.315Z,8.87
2023-04-03T00:23:39.650Z,8.23
2023-04-03T00:26:08.746Z,7.60
2023-04-03T00:28:38.407Z,7.90
2023-04-03T00:31:07.216Z,7.50
2023-04-03T00:33:35.634Z,8.10
2023-04-03T00:36:08.300Z,7.67
2023-04-03T00:38:36.990Z,7.70
2023-04-03T00:41:05.553Z,7.63
2023-04-03T00:43:34.041Z,7.53
2023-04-03T00:46:04.008Z,7.40
2023-04-03T00:48:34.441Z,6.30
2023-04-03T00:51:03.056Z,7.03
2023-04-03T00:53:36.277Z,6.97
2023-04-03T00:56:08.448Z,6.97
2023-04-03T00:58:40.100Z,6.80
2023-04-03T01:01:10.884Z,6.47
2023-04-03T01:03:39.635Z,6.20
2023-04-03T01:06:08.737Z,6.90
2023-04-03T01:08:37.610Z,6.63
2023-04-03T01:11:06.208Z,7.00
2023-04-03T01:13:35.753Z,6.60
2023-04-03T01:16:05.021Z,6.67
2023-04-03T01:18:35.556Z,7.67
2023-04-03T01:21:19.084Z,6.67
2023-04-03T01:23:52.257Z,7.37
2023-04-03T01:26:20.953Z,6.63
2023-04-03T01:28:49.228Z,5.83
2023-04-03T01:31:21.967Z,5.60
2023-04-03T01:33:51.812Z,6.47
2023-04-03T01:36:21.626Z,6.17
2023-04-03T01:38:50.037Z,6.37
2023-04-03T01:41:18.481Z,6.30
2023-04-03T01:43:46.881Z,6.30
2023-04-03T01:46:15.314Z,6.03
2023-04-03T01:48:43.838Z,5.77
2023-04-03T01:51:13.607Z,6.53
2023-04-03T01:53:42.150Z,5.63
2023-04-03T01:56:10.855Z,6.63
2023-04-03T01:58:39.333Z,5.70
2023-04-03T02:01:08.115Z,6.13
2023-04-03T02:03:36.759Z,6.50
2023-04-03T02:06:05.580Z,6.33
2023-04-03T02:08:35.351Z,7.87
2023-04-03T02:11:03.672Z,6.50
2023-04-03T02:13:32.017Z,6.83
2023-04-03T02:16:00.548Z,6.20
2023-04-03T02:18:29.045Z,6.40
2023-04-03T02:20:57.397Z,5.90
2023-04-03T02:23:25.881Z,6.70
2023-04-03T02:25:55.791Z,6.43
2023-04-03T02:28:24.208Z,6.50
2023-04-03T02:30:52.649Z,7.83
2023-04-03T02:33:21.332Z,6.67
2023-04-03T02:35:54.220Z,7.00
2023-04-03T02:38:22.800Z,7.87
2023-04-03T02:40:51.945Z,6.80
2023-04-03T02:43:21.647Z,7.73
2023-04-03T02:45:50.081Z,6.93
2023-04-03T02:48:18.647Z,7.47
2023-04-03T02:50:47.055Z,7.67
2023-04-03T02:53:16.193Z,6.97
2023-04-03T02:55:44.789Z,7.23
2023-04-03T02:58:13.215Z,7.80
2023-04-03T03:00:42.922Z,7.40
2023-04-03T03:03:11.377Z,6.97
2023-04-03T03:05:39.800Z,6.40
2023-04-03T03:08:08.102Z,7.17
2023-04-03T03:10:36.616Z,6.67
2023-04-03T03:13:05.213Z,7.50
2023-04-03T03:15:33.708Z,7.27
2023-04-03T03:18:03.533Z,6.33
2023-04-03T03:20:31.889Z,7.00
2023-04-03T03:23:00.332Z,7.30
2023-04-03T03:25:28.728Z,6.53
2023-04-03T03:27:57.083Z,7.30
2023-04-03T03:30:25.812Z,6.97
2023-04-03T03:32:54.240Z,7.30
2023-04-03T03:35:24.055Z,7.33
2023-04-03T03:37:52.463Z,7.73
2023-04-03T03:40:20.815Z,7.27
2023-04-03T03:42:49.188Z,7.00
2023-04-03T03:45:17.559Z,7.30
2023-04-03T03:47:46.591Z,6.80
2023-04-03T03:50:15.142Z,6.73
2023-04-03T03:52:45.472Z,6.20
2023-04-03T03:55:13.968Z,6.20
2023-04-03T03:57:42.491Z,7.40
2023-04-03T04:00:11.511Z,6.90
2023-04-03T04:02:40.033Z,7.17
2023-04-03T04:05:08.745Z,7.50
2023-04-03T04:07:37.231Z,6.50
2023-04-03T04:10:20.691Z,6.50
2023-04-03T04:12:50.157Z,5.80
2023-04-03T04:15:18.876Z,6.23
2023-04-03T04:17:47.390Z,5.70
2023-04-03T04:20:16.178Z,7.70
2023-04-03T04:22:44.856Z,5.77
2023-04-03T04:25:14.622Z,5.60
2023-04-03T04:27:43.142Z,5.43
2023-04-03T04:30:12.034Z,5.70
2023-04-03T04:32:40.431Z,5.27
2023-04-03T04:35:09.218Z,5.57
2023-04-03T04:37:37.580Z,6.17
2023-04-03T04:40:06.402Z,4.97
2023-04-03T04:42:36.192Z,5.83
2023-04-03T04:45:04.824Z,5.20
2023-04-03T04:47:33.292Z,5.70
2023-04-03T04:50:01.765Z,5.00
2023-04-03T04:52:30.303Z,5.07
2023-04-03T04:54:58.695Z,5.23
2023-04-03T04:57:27.132Z,5.37
2023-04-03T04:59:56.819Z,4.87
2023-04-03T05:02:25.225Z,5.10
2023-04-03T05:04:53.750Z,4.97
2023-04-03T05:07:22.265Z,5.20
2023-04-03T05:09:50.607Z,5.10
2023-04-03T05:12:19.074Z,5.03
2023-04-03T05:14:47.498Z,5.00
2023-04-03T05:17:17.371Z,4.97
2023-04-03T05:19:45.865Z,4.83
2023-04-03T05:22:14.225Z,5.50
2023-04-03T05:24:42.706Z,5.30
2023-04-03T05:27:11.987Z,5.00
2023-04-03T05:29:40.795Z,4.70
2023-04-03T05:32:09.228Z,5.60
2023-04-03T05:34:38.987Z,5.00
2023-04-03T05:37:07.337Z,5.57
2023-04-03T05:39:35.943Z,4.63
2023-04-03T05:42:04.271Z,5.10
2023-04-03T05:44:32.569Z,4.60
2023-04-03T05:47:01.091Z,5.20
2023-04-03T05:49:29.653Z,5.83
2023-04-03T05:51:59.371Z,5.17
2023-04-03T05:54:28.419Z,5.70
2023-04-03T05:56:57.116Z,5.27
2023-04-03T05:59:25.479Z,4.70
2023-04-03T06:01:53.879Z,5.13
2023-04-03T06:04:22.341Z,5.00
2023-04-03T06:06:52.552Z,5.03
2023-04-03T06:09:22.655Z,4.93
2023-04-03T06:11:51.671Z,4.90
2023-04-03T06:14:20.111Z,4.87
2023-04-03T06:16:49.315Z,4.70
2023-04-03T06:19:17.788Z,4.27
2023-04-03T06:21:46.210Z,5.10
2023-04-03T06:24:15.583Z,4.27
2023-04-03T06:26:45.343Z,4.70
2023-04-03T06:29:13.718Z,5.00
2023-04-03T06:31:42.737Z,4.60
2023-04-03T06:34:12.056Z,4.87
2023-04-03T06:36:40.427Z,4.47
2023-04-03T06:39:09.420Z,4.67
2023-04-03T06:41:37.763Z,4.27
2023-04-03T06:44:07.575Z,4.43
2023-04-03T06:46:36.233Z,4.60
2023-04-03T06:49:04.829Z,4.50
2023-04-03T06:51:33.665Z,4.63
2023-04-03T06:54:02.813Z,4.07
2023-04-03T06:56:31.700Z,4.83
2023-04-03T06:59:00.769Z,4.10
2023-04-03T07:01:31.877Z,4.27
2023-04-03T07:04:00.572Z,4.33
2023-04-03T07:06:29.001Z,3.80
2023-04-03T07:08:57.714Z,4.20
2023-04-03T07:11:26.376Z,3.53
2023-04-03T07:13:54.998Z,4.03
2023-04-03T07:16:32.945Z,4.47
2023-04-03T07:19:04.117Z,3.50
2023-04-03T07:21:32.471Z,3.80
2023-04-03T07:24:00.846Z,4.07
2023-04-03T07:26:29.356Z,4.20
2023-04-03T07:28:57.700Z,4.10
2023-04-03T07:31:26.321Z,3.93
2023-04-03T07:33:54.689Z,3.90
2023-04-03T07:36:25.311Z,3.93
2023-04-03T07:38:53.715Z,3.70
2023-04-03T07:41:23.938Z,3.70
2023-04-03T07:43:52.971Z,3.80
2023-04-03T07:46:21.806Z,3.63
2023-04-03T07:48:50.319Z,3.53
2023-04-03T07:51:18.983Z,3.67
2023-04-03T07:53:49.588Z,4.30
2023-04-03T07:56:18.096Z,3.53
2023-04-03T07:58:46.413Z,4.47
2023-04-03T08:01:15.050Z,3.47
2023-04-03T08:03:43.525Z,3.90
2023-04-03T08:06:15.745Z,4.70
2023-04-03T08:08:44.662Z,3.97
2023-04-03T08:11:14.942Z,4.23
2023-04-03T08:13:44.271Z,4.67
2023-04-03T08:16:14.027Z,4.27
2023-04-03T08:18:42.510Z,4.50
2023-04-03T08:21:11.678Z,3.83
2023-04-03T08:23:40.539Z,4.60
2023-04-03T08:26:10.147Z,4.13
2023-04-03T08:28:39.954Z,4.30
2023-04-03T08:31:11.972Z,3.90
2023-04-03T08:33:40.841Z,4.50
2023-04-03T08:36:10.793Z,3.40
2023-04-03T08:38:39.175Z,5.30
2023-04-03T08:41:14.050Z,4.13
2023-04-03T08:43:50.806Z,4.07
2023-04-03T08:46:19.839Z,3.97
2023-04-03T08:48:48.550Z,4.17
2023-04-03T08:51:17.609Z,4.30
2023-04-03T08:53:49.606Z,4.40
2023-04-03T08:56:19.143Z,4.10
2023-04-03T08:58:51.397Z,4.07
2023-04-03T09:01:21.993Z,3.93
2023-04-03T09:03:50.708Z,5.57
2023-04-03T09:06:22.673Z,5.43
2023-04-03T09:08:53.189Z,4.80
2023-04-03T09:11:24.552Z,4.33
2023-04-03T09:13:56.958Z,5.90
2023-04-03T09:16:30.935Z,5.30
2023-04-03T09:19:04.941Z,4.90
2023-04-03T09:21:35.456Z,5.20
2023-04-03T09:24:05.047Z,4.67
2023-04-03T09:26:35.388Z,4.70
2023-04-03T09:29:08.176Z,5.40
2023-04-03T09:31:40.848Z,4.57
2023-04-03T09:34:12.955Z,4.90
2023-04-03T09:36:45.084Z,5.30
2023-04-03T09:39:15.921Z,4.63
2023-04-03T09:41:45.004Z,4.40
2023-04-03T09:44:27.614Z,5.07
2023-04-03T09:46:56.405Z,4.63
2023-04-03T09:49:25.105Z,5.00
2023-04-03T09:51:54.678Z,26.50
2023-04-03T09:54:38.234Z,13.53
2023-04-03T09:57:14.515Z,14.10
2023-04-03T09:59:46.582Z,13.43
2023-04-03T10:02:26.563Z,10.63
2023-04-03T10:05:06.584Z,10.93
2023-04-03T10:07:38.198Z,9.80
2023-04-03T10:10:26.655Z,14.90
2023-04-03T10:13:07.353Z,17.67
2023-04-03T10:15:39.053Z,7.63
2023-04-03T10:18:21.713Z,7.23
2023-04-03T10:20:54.500Z,7.20
2023-04-03T10:23:24.942Z,5.13
2023-04-03T10:25:59.689Z,6.17
2023-04-03T10:28:30.483Z,4.67
2023-04-03T10:31:06.302Z,5.40
2023-04-03T10:33:45.032Z,5.20
2023-04-03T10:36:17.363Z,4.90
2023-04-03T10:38:47.908Z,5.47
2023-04-03T10:41:21.046Z,4.90
2023-04-03T10:43:53.599Z,4.43
2023-04-03T10:46:26.049Z,3.90
2023-04-03T10:49:09.466Z,4.47
2023-04-03T10:51:42.639Z,3.83
2023-04-03T10:54:14.059Z,3.73
2023-04-03T10:56:43.487Z,3.47
2023-04-03T10:59:19.486Z,3.73
2023-04-03T11:01:50.863Z,4.50
2023-04-03T11:04:20.611Z,4.67
2023-04-03T11:06:51.078Z,5.50
2023-04-03T11:09:24.319Z,5.40
2023-04-03T11:11:54.181Z,4.23
2023-04-03T11:14:27.069Z,4.63
2023-04-03T11:17:02.549Z,4.50
2023-04-03T11:19:36.871Z,4.00
2023-04-03T11:22:07.149Z,4.50
2023-04-03T11:24:39.476Z,4.50
2023-04-03T11:27:08.216Z,5.07
2023-04-03T11:29:38.995Z,4.70
2023-04-03T11:32:21.556Z,5.07
2023-04-03T11:34:51.130Z,5.30
2023-04-03T11:37:31.470Z,5.47
2023-04-03T11:40:01.195Z,4.63
2023-04-03T11:42:33.713Z,4.50
2023-04-03T11:45:19.241Z,4.40
2023-04-03T11:47:50.423Z,4.57
2023-04-03T11:50:33.554Z,4.07
2023-04-03T11:53:03.625Z,4.33
2023-04-03T11:56:02.057Z,4.70
2023-04-03T11:58:31.321Z,4.57
2023-04-03T12:01:02.301Z,4.70
2023-04-03T12:03:48.776Z,5.53
2023-04-03T12:06:37.116Z,4.40
2023-04-03T12:09:24.578Z,5.27
2023-04-03T12:11:53.901Z,4.17
2023-04-03T12:14:25.230Z,7.30
2023-04-03T12:16:54.849Z,4.50
2023-04-03T12:19:42.541Z,4.50
2023-04-03T12:22:15.465Z,4.33
2023-04-03T12:24:46.853Z,4.67
2023-04-03T12:27:36.569Z,4.47
2023-04-03T12:30:22.676Z,4.30
2023-04-03T12:33:13.629Z,5.17
2023-04-03T12:35:46.769Z,12.30
2023-04-03T12:38:22.420Z,4.90
2023-04-03T12:40:54.233Z,5.40
2023-04-03T12:43:32.347Z,11.03
2023-04-03T12:46:03.185Z,4.43
2023-04-03T12:48:32.707Z,7.70
2023-04-03T12:51:01.971Z,11.57
2023-04-03T12:53:33.321Z,10.83
2023-04-03T12:56:21.632Z,8.50
2023-04-03T12:58:51.682Z,18.90
2023-04-03T13:01:21.778Z,11.80
2023-04-03T13:03:51.450Z,27.10
2023-04-03T13:06:21.275Z,16.90
2023-04-03T13:08:53.723Z,15.90
2023-04-03T13:11:22.990Z,6.93
2023-04-03T13:13:59.698Z,4.40
2023-04-03T13:16:28.377Z,3.93
2023-04-03T13:18:57.970Z,3.50
2023-04-03T13:21:28.006Z,3.70
2023-04-03T13:24:11.482Z,3.70
2023-04-03T13:26:43.077Z,3.10
2023-04-03T13:29:29.837Z,3.87
2023-04-03T13:31:59.922Z,3.57
2023-04-03T13:34:30.149Z,3.70
2023-04-03T13:37:00.946Z,3.40
2023-04-03T13:39:30.629Z,3.30
2023-04-03T13:41:59.826Z,3.33
2023-04-03T13:44:34.393Z,3.27
2023-04-03T13:47:04.093Z,3.13
2023-04-03T13:49:34.776Z,2.93
2023-04-03T13:52:07.804Z,3.10
2023-04-03T13:54:38.598Z,3.47
2023-04-03T13:57:14.637Z,3.53
2023-04-03T13:59:44.570Z,6.90
2023-04-03T14:02:17.477Z,3.30
2023-04-03T14:05:04.418Z,4.30
2023-04-03T14:07:33.538Z,3.00
2023-04-03T14:10:01.896Z,3.60
2023-04-03T14:12:32.340Z,2.90
2023-04-03T14:15:03.362Z,3.80
2023-04-03T14:17:32.329Z,3.60
2023-04-03T14:20:01.939Z,3.53
2023-04-03T14:22:31.471Z,3.30
2023-04-03T14:25:00.296Z,3.10
2023-04-03T14:27:29.797Z,3.40
2023-04-03T14:29:59.272Z,2.60
2023-04-03T14:32:29.229Z,2.40
2023-04-03T14:34:59.228Z,2.40
2023-04-03T14:37:28.940Z,1.97
2023-04-03T14:39:57.901Z,2.40
2023-04-03T14:42:27.917Z,2.40
2023-04-03T14:44:56.344Z,2.73
2023-04-03T14:47:31.297Z,2.10
2023-04-03T14:50:02.512Z,2.93
2023-04-03T14:52:31.801Z,2.27
2023-04-03T14:55:01.419Z,2.27
2023-04-03T14:57:30.948Z,7.57
2023-04-03T14:59:59.384Z,15.73
2023-04-03T15:02:29.816Z,7.90
2023-04-03T15:04:58.586Z,17.33
2023-04-03T15:07:29.856Z,6.37
2023-04-03T15:09:58.299Z,4.90
2023-04-03T15:12:27.037Z,9.50
2023-04-03T15:15:01.180Z,7.13
2023-04-03T15:17:31.531Z,5.03
2023-04-03T15:20:01.166Z,2.57
2023-04-03T15:22:30.957Z,2.30
2023-04-03T15:24:59.455Z,2.33
2023-04-03T15:27:27.897Z,2.00
2023-04-03T15:29:56.397Z,1.97
2023-04-03T15:32:24.885Z,2.13
2023-04-03T15:34:55.944Z,3.30
2023-04-03T15:37:25.124Z,2.53
2023-04-03T15:39:54.968Z,2.73
2023-04-03T15:42:23.429Z,2.47
2023-04-03T15:44:51.822Z,2.20
2023-04-03T15:47:20.276Z,3.23
2023-04-03T15:49:48.800Z,6.17
2023-04-03T15:52:17.229Z,2.90
2023-04-03T15:54:45.659Z,2.97
2023-04-03T15:57:15.517Z,2.90
2023-04-03T15:59:43.857Z,3.73
2023-04-03T16:02:13.892Z,10.50
2023-04-03T16:04:42.917Z,12.70
2023-04-03T16:07:11.452Z,5.03
2023-04-03T16:09:39.769Z,2.67
2023-04-03T16:12:08.206Z,2.40
2023-04-03T16:14:37.972Z,3.27
2023-04-03T16:17:06.463Z,2.80
2023-04-03T16:19:34.779Z,2.63
2023-04-03T16:22:03.282Z,2.50
2023-04-03T16:24:33.098Z,2.47
2023-04-03T16:27:01.477Z,2.00
2023-04-03T16:29:29.818Z,2.30
2023-04-03T16:31:59.796Z,1.90
2023-04-03T16:34:28.332Z,3.10
2023-04-03T16:36:56.860Z,1.80
2023-04-03T16:39:25.534Z,2.80
2023-04-03T16:41:53.888Z,2.23
2023-04-03T16:44:22.243Z,2.53
2023-04-03T16:46:50.756Z,2.10
2023-04-03T16:49:20.547Z,2.10
2023-04-03T16:51:48.813Z,2.60
2023-04-03T16:54:17.238Z,2.10
2023-04-03T16:56:45.622Z,2.10
2023-04-03T16:59:14.035Z,1.67
2023-04-03T17:01:42.447Z,1.87
2023-04-03T17:04:11.051Z,1.93
2023-04-03T17:06:41.390Z,2.63
2023-04-03T17:09:10.894Z,2.40
2023-04-03T17:11:39.452Z,2.50
2023-04-03T17:14:08.215Z,2.23
2023-04-03T17:16:38.105Z,1.97
2023-04-03T17:19:06.935Z,2.03
2023-04-03T17:21:35.469Z,2.13
2023-04-03T17:24:08.592Z,2.20
2023-04-03T17:26:38.453Z,1.93
2023-04-03T17:29:08.058Z,1.90
2023-04-03T17:31:37.037Z,2.07
2023-04-03T17:34:05.945Z,1.70
2023-04-03T17:36:35.397Z,2.27
2023-04-03T17:39:05.779Z,2.07
2023-04-03T17:41:34.201Z,2.40
2023-04-03T17:44:02.638Z,1.80
2023-04-03T17:46:32.608Z,2.10
2023-04-03T17:49:03.392Z,1.63
2023-04-03T17:51:34.418Z,2.23
2023-04-03T17:54:02.970Z,2.00
2023-04-03T17:56:32.732Z,2.20
2023-04-03T17:59:01.418Z,1.90
2023-04-03T18:01:31.471Z,2.37
2023-04-03T18:04:00.880Z,1.80
2023-04-03T18:06:30.952Z,2.10
2023-04-03T18:09:02.792Z,1.70
2023-04-03T18:11:32.055Z,2.23
2023-04-03T18:14:02.738Z,2.10
2023-04-03T18:16:31.376Z,1.83
2023-04-03T18:19:20.541Z,2.20
2023-04-03T18:21:48.357Z,1.83
2023-04-03T18:24:18.692Z,1.80
2023-04-03T18:26:47.804Z,2.10
2023-04-03T18:29:17.684Z,1.90
2023-04-03T18:31:48.686Z,1.70
2023-04-03T18:34:17.100Z,2.20
2023-04-03T18:36:46.194Z,2.17
2023-04-03T18:39:14.654Z,2.20
2023-04-03T18:41:43.171Z,2.47
2023-04-03T18:44:13.130Z,2.33
2023-04-03T18:46:42.889Z,5.77
2023-04-03T18:49:11.874Z,9.00
2023-04-03T18:51:40.395Z,11.20
2023-04-03T18:54:10.050Z,7.50
2023-04-03T18:56:39.016Z,3.20
2023-04-03T18:59:07.491Z,2.70
2023-04-03T19:01:37.465Z,2.67
2023-04-03T19:04:07.369Z,2.50
2023-04-03T19:06:36.679Z,3.00
2023-04-03T19:09:06.341Z,3.63
2023-04-03T19:11:36.653Z,2.87
2023-04-03T19:14:16.216Z,2.80
2023-04-03T19:16:45.680Z,2.80
2023-04-03T19:19:15.605Z,2.47
2023-04-03T19:21:44.033Z,2.10
2023-04-03T19:24:13.315Z,2.80
2023-04-03T19:26:42.482Z,2.17
2023-04-03T19:29:11.187Z,2.70
2023-04-03T19:31:39.763Z,2.30
2023-04-03T19:34:08.633Z,3.17
2023-04-03T19:36:38.752Z,3.00
2023-04-03T19:39:07.685Z,2.80
2023-04-03T19:41:37.772Z,2.43
2023-04-03T19:44:07.219Z,2.53
2023-04-03T19:46:36.423Z,2.03
2023-04-03T19:49:05.333Z,3.40
2023-04-03T19:51:33.853Z,2.40
2023-04-03T19:54:05.825Z,2.63
2023-04-03T19:56:34.664Z,2.70
2023-04-03T19:59:03.092Z,2.43
2023-04-03T20:01:34.693Z,3.30
2023-04-03T20:04:03.156Z,2.60
2023-04-03T20:06:31.620Z,2.80
2023-04-03T20:09:00.243Z,2.70
2023-04-03T20:11:30.122Z,2.50
2023-04-03T20:13:58.534Z,2.43
2023-04-03T20:16:28.192Z,3.30
2023-04-03T20:18:57.034Z,2.47
2023-04-03T20:21:29.058Z,2.70
2023-04-03T20:23:57.480Z,3.23
2023-04-03T20:26:27.287Z,3.10
2023-04-03T20:28:58.280Z,2.73
2023-04-03T20:31:27.196Z,3.33
2023-04-03T20:33:56.817Z,2.83
2023-04-03T20:36:28.376Z,2.70
2023-04-03T20:38:57.504Z,2.97
2023-04-03T20:41:25.977Z,3.00
2023-04-03T20:43:54.396Z,2.60
2023-04-03T20:46:34.948Z,3.17
2023-04-03T20:49:11.013Z,3.17
2023-04-03T20:51:39.414Z,3.07
2023-04-03T20:54:09.663Z,3.27
2023-04-03T20:56:38.214Z,3.07
2023-04-03T20:59:06.645Z,3.47
2023-04-03T21:01:36.594Z,2.67
2023-04-03T21:04:07.227Z,3.23
2023-04-03T21:06:55.402Z,3.30
2023-04-03T21:09:42.893Z,3.47
2023-04-03T21:12:29.856Z,3.00
2023-04-03T21:15:16.846Z,3.07
2023-04-03T21:18:02.336Z,2.80
2023-04-03T21:20:30.680Z,3.27
2023-04-03T21:22:59.291Z,3.17
2023-04-03T21:25:28.792Z,3.47
2023-04-03T21:27:57.200Z,3.70
2023-04-03T21:30:25.738Z,3.20
2023-04-03T21:32:55.583Z,2.90
2023-04-03T21:35:24.070Z,3.30
2023-04-03T21:37:52.608Z,3.40
2023-04-03T21:40:20.936Z,2.90
2023-04-03T21:42:49.322Z,3.70
2023-04-03T21:45:18.321Z,3.07
2023-04-03T21:47:46.992Z,3.10
2023-04-03T21:50:18.097Z,3.60
2023-04-03T21:52:46.898Z,3.30
2023-04-03T21:55:15.582Z,2.80
2023-04-03T21:57:43.992Z,3.10
2023-04-03T22:00:12.737Z,3.37
2023-04-03T22:02:41.861Z,3.23
2023-04-03T22:05:10.399Z,3.37
2023-04-03T22:07:40.142Z,3.10
2023-04-03T22:10:08.749Z,3.30
2023-04-03T22:12:37.554Z,3.37
2023-04-03T22:15:06.640Z,3.33
2023-04-03T22:17:35.043Z,3.30
2023-04-03T22:20:03.925Z,3.23
2023-04-03T22:22:32.296Z,3.27
2023-04-03T22:25:02.102Z,3.20
2023-04-03T22:27:30.501Z,3.10
2023-04-03T22:29:58.950Z,3.07
2023-04-03T22:32:27.342Z,3.17
2023-04-03T22:34:55.768Z,3.10
2023-04-03T22:37:24.123Z,3.07
2023-04-03T22:39:53.849Z,2.93
2023-04-03T22:42:23.658Z,3.30
2023-04-03T22:44:52.010Z,3.43
2023-04-03T22:47:20.354Z,3.00
2023-04-03T22:49:48.748Z,2.80
2023-04-03T22:52:17.063Z,2.90
2023-04-03T22:54:45.440Z,3.27
2023-04-03T22:57:13.820Z,3.40
2023-04-03T22:59:43.593Z,3.57
2023-04-03T23:02:12.435Z,3.07
2023-04-03T23:04:41.067Z,2.80
2023-04-03T23:07:09.448Z,3.37
2023-04-03T23:09:37.870Z,2.67
2023-04-03T23:12:09.856Z,2.67
2023-04-03T23:14:38.518Z,2.90
2023-04-03T23:17:08.259Z,2.80
2023-04-03T23:19:36.940Z,2.90
2023-04-03T23:22:05.447Z,3.30
2023-04-03T23:24:33.855Z,2.63
2023-04-03T23:27:02.157Z,3.17
2023-04-03T23:29:30.635Z,3.70
2023-04-03T23:31:59.160Z,3.30
2023-04-03T23:34:29.075Z,3.10
2023-04-03T23:36:57.596Z,3.60
2023-04-03T23:39:25.917Z,3.37
2023-04-03T23:41:54.533Z,2.90
2023-04-03T23:44:22.852Z,2.87
2023-04-03T23:46:51.572Z,2.93
2023-04-03T23:49:19.918Z,2.50
2023-04-03T23:51:49.784Z,2.67
2023-04-03T23:54:18.112Z,2.67
2023-04-03T23:56:46.512Z,3.00
2023-04-03T23:59:14.993Z,3.07
